Time;durP1;ratioP1;P1;durP2;ratioP2;P2;SDS_P1;SDS_P2;PMS_P1;PMS_P2;Temp;Humidity;BMP_temperature;BMP_pressure;BME280_temperature;BME280_humidity;BME280_pressure;Samples;Min_cycle;Max_cycle;Signal;HPM_P1;HPM_P2
2022/10/01 00:00:16;;;;;;;0.00;0.00;;;12.10;99.90;;;;;;5037263;28;20052;-80
2022/10/01 00:02:42;;;;;;;0.00;0.00;;;12.00;99.90;;;;;;5037289;28;20049;-81
2022/10/01 00:05:11;;;;;;;0.40;0.20;;;12.00;99.90;;;;;;5054195;28;20040;-81
2022/10/01 00:07:42;;;;;;;0.00;0.00;;;12.00;99.90;;;;;;5037768;28;20140;-81
2022/10/01 00:10:09;;;;;;;0.00;0.00;;;11.90;99.90;;;;;;5037495;28;20148;-82
2022/10/01 00:12:36;;;;;;;0.15;0.00;;;11.90;99.90;;;;;;5054098;28;20419;-82
2022/10/01 00:15:02;;;;;;;0.00;0.00;;;11.80;99.90;;;;;;5053998;28;20499;-81
2022/10/01 00:17:28;;;;;;;0.00;0.00;;;11.80;99.90;;;;;;5053604;28;20048;-81
2022/10/01 00:19:54;;;;;;;0.10;0.05;;;11.70;99.90;;;;;;5053598;28;20041;-81
2022/10/01 00:22:19;;;;;;;0.00;0.00;;;11.70;99.90;;;;;;5036983;28;20052;-81
2022/10/01 00:24:46;;;;;;;0.28;0.22;;;11.70;99.90;;;;;;5053554;28;20044;-81
2022/10/01 00:27:12;;;;;;;0.10;0.10;;;11.60;99.90;;;;;;5036787;28;20045;-82
2022/10/01 00:29:39;;;;;;;0.20;0.20;;;11.60;99.90;;;;;;5054317;28;20133;-81
2022/10/01 00:32:05;;;;;;;0.00;0.00;;;11.60;99.90;;;;;;5053729;28;20546;-80
2022/10/01 00:34:30;;;;;;;0.00;0.00;;;11.60;99.90;;;;;;5036544;28;20044;-81
2022/10/01 00:36:56;;;;;;;0.00;0.00;;;11.50;99.90;;;;;;5053714;28;20043;-82
2022/10/01 00:39:22;;;;;;;0.00;0.00;;;11.50;99.90;;;;;;5053248;28;20044;-81
2022/10/01 00:41:48;;;;;;;0.03;0.03;;;11.50;99.90;;;;;;5053822;28;20064;-81
2022/10/01 00:44:33;;;;;;;0.00;0.00;;;11.50;99.90;;;;;;5037061;28;20500;-81
2022/10/01 00:47:12;;;;;;;0.00;0.00;;;11.50;99.90;;;;;;5053128;28;20493;-81
2022/10/01 00:49:39;;;;;;;0.10;0.00;;;11.50;99.90;;;;;;5036805;28;20045;-81
2022/10/01 00:52:12;;;;;;;0.15;0.00;;;11.40;99.90;;;;;;5036544;28;20583;-81
2022/10/01 00:54:45;;;;;;;0.00;0.00;;;11.40;99.90;;;;;;5036852;28;20102;-81
2022/10/01 00:57:17;;;;;;;0.00;0.00;;;11.40;99.90;;;;;;5036737;28;20049;-80
2022/10/01 00:59:45;;;;;;;0.00;0.00;;;11.40;99.90;;;;;;5053516;28;20428;-81
2022/10/01 01:02:10;;;;;;;0.00;0.00;;;11.40;99.90;;;;;;5052821;28;20480;-81
2022/10/01 01:04:38;;;;;;;0.47;0.00;;;11.30;99.90;;;;;;5052976;28;20084;-81
2022/10/01 01:07:05;;;;;;;0.00;0.00;;;11.30;99.90;;;;;;5036444;28;20041;-81
2022/10/01 01:09:47;;;;;;;0.60;0.30;;;11.30;99.90;;;;;;5039390;28;20061;-81
2022/10/01 01:12:47;;;;;;;0.00;0.00;;;11.30;99.90;;;;;;5057243;28;20087;-81
2022/10/01 01:15:16;;;;;;;0.00;0.00;;;11.30;99.90;;;;;;5000471;28;20057;-80
2022/10/01 01:18:00;;;;;;;0.20;0.20;;;11.30;99.90;;;;;;4999988;28;20125;-81
2022/10/01 01:20:41;;;;;;;0.10;0.00;;;11.30;99.90;;;;;;4999797;28;20509;-80
2022/10/01 01:23:15;;;;;;;1.02;0.30;;;11.20;99.90;;;;;;4983807;28;20054;-79
2022/10/01 01:26:09;;;;;;;3.10;0.93;;;11.20;99.90;;;;;;4983058;28;20169;-80
2022/10/01 01:28:43;;;;;;;2.05;0.20;;;11.20;99.90;;;;;;4982230;28;20042;-80
2022/10/01 01:31:13;;;;;;;0.00;0.00;;;11.30;99.90;;;;;;4982011;28;20053;-79
2022/10/01 01:33:40;;;;;;;0.35;0.35;;;11.20;99.90;;;;;;4999797;28;20285;-80
2022/10/01 01:36:12;;;;;;;0.68;0.32;;;11.20;99.90;;;;;;4999771;28;20050;-80
2022/10/01 01:38:44;;;;;;;0.10;0.10;;;11.10;99.90;;;;;;5000697;28;20057;-81
2022/10/01 01:41:11;;;;;;;0.00;0.00;;;11.10;99.90;;;;;;4983597;28;20052;-81
2022/10/01 01:43:42;;;;;;;0.00;0.00;;;11.10;99.90;;;;;;4999699;28;20089;-80
2022/10/01 01:46:10;;;;;;;0.95;0.32;;;11.20;99.90;;;;;;4999330;28;20139;-80
2022/10/01 01:48:40;;;;;;;0.03;0.00;;;11.10;99.90;;;;;;4983938;28;20070;-80
2022/10/01 01:51:32;;;;;;;0.08;0.00;;;11.10;99.90;;;;;;5037902;28;20056;-80
2022/10/01 01:53:58;;;;;;;0.10;0.00;;;11.10;99.90;;;;;;5042454;28;20489;-80
2022/10/01 01:56:23;;;;;;;0.00;0.00;;;11.10;99.90;;;;;;5042714;28;20045;-81
2022/10/01 01:58:50;;;;;;;0.00;0.00;;;11.10;99.90;;;;;;5057049;28;20091;-81
2022/10/01 02:01:39;;;;;;;0.17;0.17;;;11.10;99.90;;;;;;5056884;28;20132;-80
2022/10/01 02:04:24;;;;;;;0.05;0.00;;;11.00;99.90;;;;;;5042621;28;20107;-81
2022/10/01 02:07:08;;;;;;;0.00;0.00;;;11.00;99.90;;;;;;5061680;28;20049;-81
2022/10/01 02:09:36;;;;;;;0.25;0.25;;;11.00;99.90;;;;;;5063265;28;20044;-82
2022/10/01 02:12:06;;;;;;;1.33;0.20;;;11.00;99.90;;;;;;5044753;28;20041;-81
2022/10/01 02:14:53;;;;;;;1.65;0.45;;;11.00;99.90;;;;;;5061015;28;20044;-81
2022/10/01 02:17:55;;;;;;;0.03;0.03;;;11.00;99.90;;;;;;5059399;28;20049;-81
2022/10/01 02:20:48;;;;;;;0.47;0.08;;;11.00;99.90;;;;;;5001107;28;20096;-80
2022/10/01 02:23:21;;;;;;;0.00;0.00;;;11.00;99.90;;;;;;4984911;28;20055;-82
2022/10/01 02:25:56;;;;;;;0.00;0.00;;;11.00;99.90;;;;;;5000539;28;20505;-81
2022/10/01 02:28:23;;;;;;;0.00;0.00;;;11.00;99.90;;;;;;4983562;28;20065;-82
2022/10/01 02:30:52;;;;;;;0.00;0.00;;;11.00;99.90;;;;;;4999103;28;20054;-82
2022/10/01 02:33:23;;;;;;;0.15;0.08;;;11.00;99.90;;;;;;4999027;28;20046;-81
2022/10/01 02:35:52;;;;;;;0.22;0.08;;;11.00;99.90;;;;;;4982936;28;20050;-81
2022/10/01 02:38:22;;;;;;;1.08;0.32;;;11.00;99.90;;;;;;4982975;28;20058;-81
2022/10/01 02:40:50;;;;;;;0.13;0.03;;;11.00;99.90;;;;;;4998607;28;20053;-82
2022/10/01 02:43:25;;;;;;;0.00;0.00;;;11.00;99.90;;;;;;4998489;28;20116;-83
2022/10/01 02:45:57;;;;;;;0.40;0.32;;;11.00;99.90;;;;;;4982237;28;20053;-82
2022/10/01 02:48:23;;;;;;;0.00;0.00;;;11.10;99.90;;;;;;4982630;28;20057;-81
2022/10/01 02:50:52;;;;;;;0.05;0.00;;;11.10;99.90;;;;;;4998364;28;20058;-81
2022/10/01 02:53:36;;;;;;;0.00;0.00;;;11.10;99.90;;;;;;4998398;28;20057;-81
2022/10/01 02:56:03;;;;;;;0.03;0.03;;;11.10;99.90;;;;;;5008370;28;20520;-80
2022/10/01 02:58:29;;;;;;;0.15;0.00;;;11.10;99.90;;;;;;5055680;28;20041;-81
2022/10/01 03:00:54;;;;;;;0.00;0.00;;;11.20;99.90;;;;;;5054864;28;20091;-81
2022/10/01 03:03:20;;;;;;;0.10;0.10;;;11.10;99.90;;;;;;5054587;28;20102;-81
2022/10/01 03:05:45;;;;;;;0.22;0.22;;;11.20;99.90;;;;;;5055253;28;20136;-81
2022/10/01 03:08:11;;;;;;;0.00;0.00;;;11.10;99.90;;;;;;5055243;28;20045;-81
2022/10/01 03:10:37;;;;;;;0.00;0.00;;;11.10;99.90;;;;;;5055055;28;20523;-80
2022/10/01 03:13:05;;;;;;;1.35;0.08;;;11.10;99.90;;;;;;5054763;28;20041;-79
2022/10/01 03:15:31;;;;;;;0.00;0.00;;;11.10;99.90;;;;;;5054846;28;20103;-80
2022/10/01 03:17:56;;;;;;;0.28;0.25;;;11.20;99.90;;;;;;5054496;28;20430;-80
2022/10/01 03:20:22;;;;;;;1.00;0.10;;;11.20;99.90;;;;;;5054779;28;20362;-80
2022/10/01 03:22:48;;;;;;;0.10;0.10;;;11.10;99.90;;;;;;5038295;28;20053;-80
2022/10/01 03:25:14;;;;;;;0.00;0.00;;;11.10;99.90;;;;;;5054546;28;20091;-80
2022/10/01 03:27:40;;;;;;;0.00;0.00;;;11.20;99.90;;;;;;5038174;28;20048;-81
2022/10/01 03:30:06;;;;;;;0.00;0.00;;;11.20;99.90;;;;;;5054633;28;20133;-80
2022/10/01 03:32:32;;;;;;;0.00;0.00;;;11.10;99.90;;;;;;5036357;28;20114;-79
2022/10/01 03:34:58;;;;;;;0.00;0.00;;;11.10;99.90;;;;;;5054453;28;20508;-80
2022/10/01 03:37:24;;;;;;;0.35;0.35;;;11.10;99.90;;;;;;5054962;28;20136;-79
2022/10/01 03:39:53;;;;;;;0.00;0.00;;;11.10;99.90;;;;;;5038108;28;20440;-80
2022/10/01 03:42:18;;;;;;;0.00;0.00;;;11.10;99.90;;;;;;5054066;28;20056;-80
2022/10/01 03:44:44;;;;;;;0.45;0.30;;;11.10;99.90;;;;;;5054385;28;20439;-81
2022/10/01 03:47:10;;;;;;;0.00;0.00;;;11.10;99.90;;;;;;5037739;28;20052;-81
2022/10/01 03:49:36;;;;;;;0.00;0.00;;;11.10;99.90;;;;;;5037388;28;20056;-81
2022/10/01 03:52:03;;;;;;;0.00;0.00;;;11.10;99.90;;;;;;5037631;28;20049;-82
2022/10/01 03:54:30;;;;;;;0.10;0.00;;;11.10;99.90;;;;;;5037648;28;20055;-81
2022/10/01 03:56:56;;;;;;;0.38;0.10;;;11.00;99.90;;;;;;5054289;28;20385;-81
2022/10/01 03:59:22;;;;;;;0.00;0.00;;;11.00;99.90;;;;;;5053998;28;20103;-80
2022/10/01 04:01:48;;;;;;;0.00;0.00;;;11.10;99.90;;;;;;5054572;28;20045;-81
2022/10/01 04:04:13;;;;;;;0.08;0.00;;;11.00;99.90;;;;;;5054078;28;20369;-81
2022/10/01 04:06:39;;;;;;;0.00;0.00;;;11.10;99.90;;;;;;5053571;28;20048;-81
2022/10/01 04:09:06;;;;;;;0.00;0.00;;;11.10;99.90;;;;;;5037231;28;20071;-80
2022/10/01 04:11:31;;;;;;;0.00;0.00;;;11.10;99.90;;;;;;5037499;28;20084;-81
2022/10/01 04:13:57;;;;;;;0.00;0.00;;;11.00;99.90;;;;;;5053645;28;20087;-80
2022/10/01 04:16:23;;;;;;;0.10;0.00;;;11.10;99.90;;;;;;5053381;28;20461;-80
2022/10/01 04:18:49;;;;;;;0.00;0.00;;;11.10;99.90;;;;;;5037025;28;20051;-80
2022/10/01 04:21:16;;;;;;;0.00;0.00;;;11.10;99.90;;;;;;5053564;28;20376;-80
2022/10/01 04:23:42;;;;;;;0.00;0.00;;;11.10;99.90;;;;;;5053391;28;20048;-81
2022/10/01 04:26:08;;;;;;;0.00;0.00;;;11.20;99.90;;;;;;5053252;28;20041;-80
2022/10/01 04:28:34;;;;;;;0.00;0.00;;;11.10;99.90;;;;;;5036821;28;20134;-81
2022/10/01 04:33:43;;;;;;;0.00;0.00;;;11.10;99.90;;;;;;5054219;28;20052;-81
2022/10/01 04:36:09;;;;;;;0.25;0.25;;;11.10;99.90;;;;;;5036937;28;20547;-80
2022/10/01 04:38:35;;;;;;;0.00;0.00;;;11.10;99.90;;;;;;5053644;28;20040;-82
2022/10/01 04:41:00;;;;;;;0.00;0.00;;;11.20;99.90;;;;;;5036904;28;20049;-82
2022/10/01 04:43:26;;;;;;;0.00;0.00;;;11.20;99.90;;;;;;5053002;28;20053;-82
2022/10/01 04:45:52;;;;;;;0.43;0.10;;;11.20;99.90;;;;;;5053034;28;20049;-82
2022/10/01 04:48:17;;;;;;;0.10;0.00;;;11.30;99.90;;;;;;5053131;28;20132;-81
2022/10/01 04:50:43;;;;;;;0.00;0.00;;;11.20;99.90;;;;;;5036666;28;20148;-81
2022/10/01 04:53:09;;;;;;;0.00;0.00;;;11.20;99.90;;;;;;5053147;28;20052;-81
2022/10/01 04:55:34;;;;;;;0.00;0.00;;;11.20;99.90;;;;;;5036548;28;20056;-81
2022/10/01 04:58:00;;;;;;;0.00;0.00;;;11.20;99.90;;;;;;5037216;28;20446;-82
2022/10/01 05:00:26;;;;;;;0.00;0.00;;;11.20;99.90;;;;;;5036007;28;20068;-82
2022/10/01 05:02:52;;;;;;;0.00;0.00;;;11.30;99.90;;;;;;5053180;28;20049;-82
2022/10/01 05:05:20;;;;;;;0.00;0.00;;;11.30;99.90;;;;;;5036625;28;20096;-81
2022/10/01 05:07:46;;;;;;;0.03;0.03;;;11.20;99.90;;;;;;5052763;28;20497;-81
2022/10/01 05:10:18;;;;;;;0.03;0.00;;;11.20;99.90;;;;;;5052847;28;20556;-81
2022/10/01 05:12:45;;;;;;;0.00;0.00;;;11.30;99.90;;;;;;5053782;28;20049;-81
2022/10/01 05:15:10;;;;;;;0.00;0.00;;;11.30;99.90;;;;;;5053872;28;20075;-81
2022/10/01 05:17:36;;;;;;;0.00;0.00;;;11.30;99.90;;;;;;5052801;28;20078;-81
2022/10/01 05:20:04;;;;;;;1.20;0.77;;;11.30;99.90;;;;;;5053079;28;20048;-81
2022/10/01 05:22:30;;;;;;;0.00;0.00;;;11.30;99.90;;;;;;5054330;28;20409;-81
2022/10/01 05:24:59;;;;;;;0.00;0.00;;;11.40;99.90;;;;;;5053572;28;20096;-81
2022/10/01 05:27:26;;;;;;;0.00;0.00;;;11.40;99.90;;;;;;5036084;28;20374;-81
2022/10/01 05:29:52;;;;;;;0.00;0.00;;;11.50;99.90;;;;;;5053275;28;20045;-81
2022/10/01 05:32:18;;;;;;;0.00;0.00;;;11.40;99.90;;;;;;5052508;28;20052;-81
2022/10/01 05:34:44;;;;;;;0.00;0.00;;;11.40;99.90;;;;;;5036161;28;20141;-81
2022/10/01 05:37:10;;;;;;;0.00;0.00;;;11.50;99.90;;;;;;5036030;28;20467;-81
2022/10/01 05:39:37;;;;;;;0.00;0.00;;;11.50;99.90;;;;;;5053101;28;20124;-81
2022/10/01 05:42:03;;;;;;;0.00;0.00;;;11.50;99.90;;;;;;5035886;28;20053;-81
2022/10/01 05:44:31;;;;;;;0.00;0.00;;;11.50;99.90;;;;;;5036271;28;20415;-81
2022/10/01 05:46:57;;;;;;;0.00;0.00;;;11.50;99.90;;;;;;5035812;28;20087;-82
2022/10/01 05:49:24;;;;;;;0.00;0.00;;;11.50;99.90;;;;;;5052363;28;20469;-82
2022/10/01 05:51:49;;;;;;;0.05;0.00;;;11.60;99.90;;;;;;5052326;28;20447;-82
2022/10/01 05:54:18;;;;;;;0.00;0.00;;;11.60;99.90;;;;;;5052848;28;20053;-81
2022/10/01 05:56:44;;;;;;;0.00;0.00;;;11.60;99.90;;;;;;5055177;28;20057;-82
2022/10/01 05:59:10;;;;;;;0.00;0.00;;;11.60;99.90;;;;;;5056051;28;20057;-82
2022/10/01 06:01:36;;;;;;;0.00;0.00;;;11.60;99.90;;;;;;5055954;28;20045;-82
2022/10/01 06:04:02;;;;;;;0.00;0.00;;;11.60;99.90;;;;;;5055741;28;20075;-82
2022/10/01 06:06:28;;;;;;;0.00;0.00;;;11.60;99.90;;;;;;5055397;28;20080;-83
2022/10/01 06:08:54;;;;;;;0.00;0.00;;;11.70;99.90;;;;;;5056544;28;20037;-82
2022/10/01 06:11:23;;;;;;;0.00;0.00;;;11.70;99.90;;;;;;5040011;28;20084;-82
2022/10/01 06:13:49;;;;;;;0.00;0.00;;;11.70;99.90;;;;;;5055760;28;20044;-81
2022/10/01 06:16:15;;;;;;;0.00;0.00;;;11.70;99.90;;;;;;5055852;28;20049;-82
2022/10/01 06:18:41;;;;;;;0.00;0.00;;;11.80;99.90;;;;;;5055764;28;20146;-81
2022/10/01 06:21:07;;;;;;;0.00;0.00;;;11.90;99.90;;;;;;5038773;28;20114;-82
2022/10/01 06:23:33;;;;;;;0.00;0.00;;;11.80;99.90;;;;;;5055458;28;20409;-82
2022/10/01 06:26:00;;;;;;;0.00;0.00;;;11.80;99.90;;;;;;5039334;28;20044;-82
2022/10/01 06:28:26;;;;;;;0.00;0.00;;;11.90;99.90;;;;;;5055363;28;20480;-82
2022/10/01 06:30:52;;;;;;;0.00;0.00;;;11.90;99.90;;;;;;5055188;28;20091;-83
2022/10/01 06:33:18;;;;;;;0.00;0.00;;;11.90;99.90;;;;;;5055369;28;20048;-82
2022/10/01 06:35:50;;;;;;;0.20;0.10;;;11.90;99.90;;;;;;5055274;28;20049;-82
2022/10/01 06:38:19;;;;;;;0.00;0.00;;;11.90;99.90;;;;;;5055117;28;20048;-82
2022/10/01 06:40:51;;;;;;;0.00;0.00;;;12.00;99.90;;;;;;5038500;28;20041;-82
2022/10/01 06:43:17;;;;;;;0.00;0.00;;;12.00;99.90;;;;;;5055000;28;20057;-81
2022/10/01 06:45:42;;;;;;;0.00;0.00;;;12.00;99.90;;;;;;5054927;28;20132;-82
2022/10/01 06:48:13;;;;;;;0.00;0.00;;;12.00;99.90;;;;;;5054892;28;20087;-82
2022/10/01 06:50:39;;;;;;;0.00;0.00;;;12.20;99.90;;;;;;5054935;28;20502;-82
2022/10/01 06:53:05;;;;;;;0.05;0.00;;;12.30;99.90;;;;;;5038201;28;20136;-82
2022/10/01 06:55:33;;;;;;;0.20;0.20;;;12.30;99.90;;;;;;5054995;28;20084;-82
2022/10/01 06:58:05;;;;;;;0.00;0.00;;;12.30;99.90;;;;;;5054648;28;20053;-82
2022/10/01 07:00:33;;;;;;;0.10;0.10;;;12.30;99.90;;;;;;5038089;28;20056;-83
2022/10/01 07:02:59;;;;;;;0.00;0.00;;;12.40;99.90;;;;;;5054670;28;20071;-83
2022/10/01 07:05:26;;;;;;;0.00;0.00;;;12.40;99.90;;;;;;5055109;28;20098;-83
2022/10/01 07:07:52;;;;;;;0.00;0.00;;;12.40;99.90;;;;;;5054067;28;20041;-83
2022/10/01 07:10:19;;;;;;;0.00;0.00;;;12.50;99.90;;;;;;5064847;28;20039;-82
2022/10/01 07:12:49;;;;;;;0.00;0.00;;;12.50;99.90;;;;;;5066995;28;20071;-83
2022/10/01 07:15:17;;;;;;;0.00;0.00;;;12.50;99.90;;;;;;5059209;28;20045;-83
2022/10/01 07:17:50;;;;;;;0.00;0.00;;;12.50;99.90;;;;;;5054957;28;20088;-83
2022/10/01 07:20:17;;;;;;;0.00;0.00;;;12.50;99.90;;;;;;5054620;28;20049;-83
2022/10/01 07:22:44;;;;;;;0.00;0.00;;;12.60;99.90;;;;;;5037930;28;20111;-83
2022/10/01 07:25:09;;;;;;;0.00;0.00;;;12.60;99.90;;;;;;5054467;28;20099;-83
2022/10/01 07:27:36;;;;;;;0.00;0.00;;;12.70;99.90;;;;;;5037551;28;20033;-83
2022/10/01 07:30:02;;;;;;;0.00;0.00;;;12.80;99.90;;;;;;5055044;28;20393;-83
2022/10/01 07:32:30;;;;;;;0.00;0.00;;;12.80;99.90;;;;;;5037932;28;20041;-83
2022/10/01 07:34:56;;;;;;;0.00;0.00;;;13.00;99.90;;;;;;5054068;28;20092;-83
2022/10/01 07:37:22;;;;;;;0.00;0.00;;;13.20;99.90;;;;;;5037518;28;20053;-83
2022/10/01 07:39:48;;;;;;;0.00;0.00;;;13.30;99.90;;;;;;5054292;28;20048;-82
2022/10/01 07:42:14;;;;;;;0.00;0.00;;;13.30;99.90;;;;;;5037603;28;20048;-83
2022/10/01 07:44:39;;;;;;;0.00;0.00;;;13.40;99.90;;;;;;5054352;28;20057;-83
2022/10/01 07:47:05;;;;;;;0.00;0.00;;;13.40;99.90;;;;;;5053718;28;20037;-83
2022/10/01 07:49:31;;;;;;;1.80;0.57;;;13.40;99.90;;;;;;5054097;28;20041;-82
2022/10/01 07:51:57;;;;;;;0.10;0.00;;;13.50;99.90;;;;;;5053801;28;20048;-83
2022/10/01 07:54:24;;;;;;;0.20;0.20;;;13.50;99.90;;;;;;5054075;28;20141;-83
2022/10/01 07:56:54;;;;;;;0.00;0.00;;;13.60;99.90;;;;;;5053790;28;20051;-83
2022/10/01 07:59:25;;;;;;;0.00;0.00;;;13.70;99.90;;;;;;5037500;28;20063;-82
2022/10/01 08:01:52;;;;;;;0.10;0.00;;;13.80;99.90;;;;;;5053442;28;20054;-82
2022/10/01 08:07:04;;;;;;;0.00;0.00;;;13.80;99.90;;;;;;5053935;28;20132;-82
2022/10/01 08:09:30;;;;;;;0.00;0.00;;;13.80;99.90;;;;;;5037589;28;20061;-82
2022/10/01 08:11:55;;;;;;;0.15;0.15;;;13.90;99.90;;;;;;5053998;28;20381;-82
2022/10/01 08:14:21;;;;;;;0.10;0.10;;;13.90;99.90;;;;;;5053934;28;20392;-82
2022/10/01 08:16:47;;;;;;;0.00;0.00;;;13.90;99.90;;;;;;5053836;28;20576;-82
2022/10/01 08:19:14;;;;;;;0.00;0.00;;;14.00;99.90;;;;;;5053468;28;20084;-82
2022/10/01 08:21:40;;;;;;;0.00;0.00;;;14.00;99.90;;;;;;5053250;28;20060;-82
2022/10/01 08:24:06;;;;;;;1.45;0.00;;;14.10;99.90;;;;;;5036757;28;20048;-82
2022/10/01 08:26:32;;;;;;;0.15;0.00;;;14.20;99.90;;;;;;5053038;28;20041;-82
2022/10/01 08:28:58;;;;;;;0.10;0.00;;;14.30;99.90;;;;;;5036638;28;20048;-82
2022/10/01 08:31:24;;;;;;;0.00;0.00;;;14.40;99.90;;;;;;5053397;28;20548;-82
2022/10/01 08:33:50;;;;;;;0.00;0.00;;;14.50;99.90;;;;;;5053244;28;20527;-82
2022/10/01 08:36:15;;;;;;;0.00;0.00;;;14.50;99.90;;;;;;5053081;28;20048;-82
2022/10/01 08:38:45;;;;;;;0.20;0.20;;;14.70;99.90;;;;;;5053243;28;20132;-82
2022/10/01 08:41:56;;;;;;;0.00;0.00;;;14.80;99.90;;;;;;5036560;28;20107;-82
2022/10/01 08:44:29;;;;;;;0.03;0.03;;;15.00;99.90;;;;;;5036707;28;20060;-82
2022/10/01 08:47:05;;;;;;;4.03;0.90;;;15.30;99.90;;;;;;5052868;28;20505;-81
2022/10/01 08:49:49;;;;;;;0.10;0.10;;;15.30;99.90;;;;;;5037060;28;20060;-81
2022/10/01 08:52:27;;;;;;;0.08;0.03;;;15.30;99.90;;;;;;5053089;28;20048;-82
2022/10/01 08:55:16;;;;;;;1.48;0.85;;;15.40;99.90;;;;;;5053054;28;20048;-81
2022/10/01 08:57:48;;;;;;;0.00;0.00;;;15.50;99.90;;;;;;5036971;28;20053;-82
2022/10/01 09:00:16;;;;;;;0.00;0.00;;;15.40;99.90;;;;;;5053233;28;20049;-82
2022/10/01 09:02:43;;;;;;;0.00;0.00;;;15.40;99.90;;;;;;5054546;28;20045;-82
2022/10/01 09:05:18;;;;;;;0.00;0.00;;;15.50;99.90;;;;;;5043569;28;20060;-81
2022/10/01 09:07:52;;;;;;;0.65;0.20;;;15.50;99.90;;;;;;5059761;28;20104;-82
2022/10/01 09:10:45;;;;;;;0.00;0.00;;;15.60;99.90;;;;;;5036525;28;20045;-82
2022/10/01 09:13:28;;;;;;;0.05;0.05;;;15.70;99.90;;;;;;5053056;28;20040;-82
2022/10/01 09:16:08;;;;;;;0.00;0.00;;;15.80;99.90;;;;;;5052762;28;20053;-81
2022/10/01 09:18:59;;;;;;;0.40;0.10;;;15.90;99.90;;;;;;5053005;28;20084;-82
2022/10/01 09:21:35;;;;;;;0.00;0.00;;;16.10;99.90;;;;;;5036827;28;20070;-82
2022/10/01 09:24:06;;;;;;;0.05;0.05;;;16.40;99.90;;;;;;5052962;28;20045;-82
2022/10/01 09:26:34;;;;;;;0.10;0.10;;;16.50;99.90;;;;;;5036424;28;20092;-82
2022/10/01 09:29:02;;;;;;;0.80;0.55;;;16.60;99.90;;;;;;5053489;28;20136;-81
2022/10/01 09:31:36;;;;;;;0.00;0.00;;;16.50;99.90;;;;;;5055224;28;20049;-81
2022/10/01 09:34:11;;;;;;;0.00;0.00;;;16.40;99.90;;;;;;5057089;28;20044;-81
2022/10/01 09:36:45;;;;;;;;;;;16.40;99.90;;;;;;5057426;28;20092;-81
2022/10/01 09:39:22;;;;;;;0.00;0.00;;;16.60;99.90;;;;;;5039934;28;19920;-81
2022/10/01 09:41:48;;;;;;;0.17;0.17;;;16.60;99.90;;;;;;5056062;28;20056;-81
2022/10/01 09:44:26;;;;;;;0.00;0.00;;;16.70;99.90;;;;;;5057015;28;20049;-81
2022/10/01 09:46:54;;;;;;;0.00;0.00;;;17.00;99.90;;;;;;5039149;28;20049;-81
2022/10/01 09:49:38;;;;;;;0.00;0.00;;;17.20;99.90;;;;;;5056383;28;20045;-82
2022/10/01 09:52:14;;;;;;;0.10;0.10;;;17.30;99.90;;;;;;5056886;28;20044;-81
2022/10/01 09:54:47;;;;;;;0.75;0.60;;;17.40;99.90;;;;;;5039916;28;20056;-82
2022/10/01 09:57:19;;;;;;;0.00;0.00;;;17.50;99.90;;;;;;5056426;28;20041;-82
2022/10/01 09:59:56;;;;;;;0.00;0.00;;;17.70;99.90;;;;;;5055693;28;20485;-82
2022/10/01 10:02:30;;;;;;;0.70;0.10;;;17.70;99.90;;;;;;5040013;28;20572;-81
2022/10/01 10:05:01;;;;;;;0.38;0.08;;;17.80;99.90;;;;;;5039396;28;20049;-82
2022/10/01 10:07:30;;;;;;;0.00;0.00;;;17.70;99.90;;;;;;5038837;28;20089;-82
2022/10/01 10:09:57;;;;;;;2.47;0.47;;;17.60;99.90;;;;;;5055821;28;20377;-82
2022/10/01 10:12:31;;;;;;;0.00;0.00;;;17.50;99.90;;;;;;5055905;28;20044;-81
2022/10/01 10:15:07;;;;;;;0.00;0.00;;;17.70;99.90;;;;;;5039091;28;20056;-81
2022/10/01 10:17:36;;;;;;;1.27;0.30;;;17.80;99.90;;;;;;5056223;28;20126;-81
2022/10/01 10:20:09;;;;;;;0.00;0.00;;;18.00;99.90;;;;;;5055938;28;20081;-81
2022/10/01 10:22:35;;;;;;;0.00;0.00;;;18.00;99.90;;;;;;5055688;28;20045;-82
2022/10/01 10:25:12;;;;;;;0.00;0.00;;;18.20;99.90;;;;;;5055522;28;20045;-81
2022/10/01 10:27:51;;;;;;;0.32;0.32;;;18.20;99.90;;;;;;5039158;28;20095;-82
2022/10/01 10:30:17;;;;;;;0.00;0.00;;;18.30;99.90;;;;;;5039041;28;20049;-82
2022/10/01 10:32:45;;;;;;;0.00;0.00;;;18.40;99.90;;;;;;5055192;28;20136;-82
2022/10/01 10:35:17;;;;;;;0.00;0.00;;;18.60;99.90;;;;;;5055445;28;20116;-81
2022/10/01 10:37:47;;;;;;;0.10;0.00;;;18.90;99.90;;;;;;5055774;28;20476;-81
2022/10/01 10:40:23;;;;;;;0.52;0.15;;;18.80;99.90;;;;;;5055444;28;20049;-81
2022/10/01 10:42:51;;;;;;;1.20;0.55;;;18.70;99.90;;;;;;5054851;28;20061;-81
2022/10/01 10:45:29;;;;;;;0.10;0.00;;;18.70;99.90;;;;;;5055258;28;20113;-81
2022/10/01 10:47:56;;;;;;;0.00;0.00;;;18.50;99.90;;;;;;5055722;28;20045;-81
2022/10/01 10:50:37;;;;;;;0.00;0.00;;;18.10;99.90;;;;;;5055515;28;20103;-81
2022/10/01 10:53:23;;;;;;;2.55;0.45;;;17.80;99.90;;;;;;5038895;28;20049;-81
2022/10/01 10:56:00;;;;;;;0.00;0.00;;;17.40;99.90;;;;;;5055192;28;20080;-82
2022/10/01 10:58:28;;;;;;;3.53;0.45;;;17.00;99.90;;;;;;5039248;28;20095;-81
2022/10/01 11:00:57;;;;;;;0.00;0.00;;;16.40;99.90;;;;;;5038764;28;20111;-83
2022/10/01 11:03:26;;;;;;;0.08;0.08;;;16.10;99.90;;;;;;5055683;28;20489;-83
2022/10/01 11:05:55;;;;;;;0.00;0.00;;;15.90;99.90;;;;;;5057522;28;20051;-82
2022/10/01 11:08:24;;;;;;;0.00;0.00;;;15.70;99.90;;;;;;5054594;28;20488;-82
2022/10/01 11:11:31;;;;;;;0.00;0.00;;;15.50;99.90;;;;;;5039210;28;20064;-83
2022/10/01 11:14:35;;;;;;;0.00;0.00;;;15.50;99.90;;;;;;5054910;28;20049;-83
2022/10/01 11:17:14;;;;;;;0.00;0.00;;;15.50;99.90;;;;;;5037392;28;20099;-83
2022/10/01 11:19:48;;;;;;;0.00;0.00;;;15.70;99.90;;;;;;5038210;28;20069;-82
2022/10/01 11:22:26;;;;;;;0.05;0.05;;;15.60;99.90;;;;;;5054632;28;20373;-82
2022/10/01 11:25:40;;;;;;;0.00;0.00;;;15.50;99.90;;;;;;5054553;28;20072;-82
2022/10/01 11:28:43;;;;;;;0.00;0.00;;;15.40;99.90;;;;;;4997382;28;20061;-82
2022/10/01 11:31:23;;;;;;;0.10;0.10;;;15.40;99.90;;;;;;4981433;28;20615;-82
2022/10/01 11:34:14;;;;;;;4.75;0.10;;;15.30;99.90;;;;;;4997409;28;20050;-81
2022/10/01 11:36:52;;;;;;;0.05;0.00;;;15.10;99.90;;;;;;4981086;28;20188;-82
2022/10/01 11:39:19;;;;;;;0.00;0.00;;;15.00;99.90;;;;;;4996881;28;20058;-83
2022/10/01 11:41:48;;;;;;;0.00;0.00;;;14.90;99.90;;;;;;4996758;28;20042;-84
2022/10/01 11:44:22;;;;;;;0.00;0.00;;;14.80;99.90;;;;;;4997555;28;20050;-84
2022/10/01 11:47:12;;;;;;;0.00;0.00;;;14.70;99.90;;;;;;4997314;28;20046;-84
2022/10/01 11:49:58;;;;;;;0.13;0.13;;;14.70;99.90;;;;;;4980438;28;20616;-84
2022/10/01 11:52:39;;;;;;;0.47;0.20;;;14.60;99.90;;;;;;4980312;28;20494;-83
2022/10/01 11:58:51;;;;;;;0.00;0.00;;;14.50;99.90;;;;;;4976830;28;20065;-83
2022/10/01 12:01:27;;;;;;;0.25;0.15;;;14.60;99.90;;;;;;4977085;28;20141;-82
2022/10/01 12:03:52;;;;;;;0.00;0.00;;;14.50;99.90;;;;;;4981030;28;20054;-82
2022/10/01 12:06:59;;;;;;;0.00;0.00;;;14.70;99.90;;;;;;4995958;28;20058;-83
2022/10/01 12:09:49;;;;;;;0.00;0.00;;;15.20;99.90;;;;;;4996335;28;20049;-83
2022/10/01 12:12:21;;;;;;;0.00;0.00;;;15.90;99.90;;;;;;4996533;28;20038;-83
2022/10/01 12:15:04;;;;;;;0.00;0.00;;;16.60;99.90;;;;;;4980214;28;20065;-82
2022/10/01 12:17:52;;;;;;;0.00;0.00;;;17.00;99.90;;;;;;4996578;28;20074;-82
2022/10/01 12:20:44;;;;;;;0.00;0.00;;;17.30;99.90;;;;;;4992618;28;20066;-82
2022/10/01 12:23:16;;;;;;;0.00;0.00;;;17.70;99.90;;;;;;4996412;28;20109;-82
2022/10/01 12:25:55;;;;;;;0.00;0.00;;;17.90;99.90;;;;;;4979952;28;20061;-83
2022/10/01 12:28:50;;;;;;;0.00;0.00;;;17.90;99.90;;;;;;5012911;28;20216;-82
2022/10/01 12:31:32;;;;;;;0.00;0.00;;;18.10;99.90;;;;;;4980134;28;20144;-82
2022/10/01 12:34:27;;;;;;;0.00;0.00;;;18.30;99.90;;;;;;5018232;28;20490;-82
2022/10/01 12:37:09;;;;;;;0.00;0.00;;;18.20;99.90;;;;;;5033136;28;20053;-82
2022/10/01 12:39:58;;;;;;;0.00;0.00;;;18.20;99.90;;;;;;5048299;28;20521;-82
2022/10/01 12:42:56;;;;;;;0.00;0.00;;;18.10;99.90;;;;;;4993109;28;20049;-83
2022/10/01 12:45:24;;;;;;;0.00;0.00;;;17.90;99.90;;;;;;4977901;28;20140;-83
2022/10/01 12:48:17;;;;;;;0.00;0.00;;;17.50;99.90;;;;;;4976958;28;20060;-81
2022/10/01 12:50:53;;;;;;;0.00;0.00;;;17.10;99.90;;;;;;4993876;28;20124;-82
2022/10/01 12:53:30;;;;;;;0.10;0.10;;;16.80;99.90;;;;;;4993173;28;20073;-81
2022/10/01 12:56:09;;;;;;;0.00;0.00;;;16.40;99.90;;;;;;4994045;28;20046;-82
2022/10/01 12:59:12;;;;;;;0.75;0.38;;;16.10;99.90;;;;;;4977493;28;20069;-82
2022/10/01 13:02:06;;;;;;;0.30;0.30;;;15.80;99.90;;;;;;5009958;28;20054;-82
2022/10/01 13:05:19;;;;;;;0.08;0.08;;;15.80;99.90;;;;;;4995661;28;20049;-82
2022/10/01 13:07:51;;;;;;;0.00;0.00;;;15.70;99.90;;;;;;4994158;28;20050;-82
2022/10/01 13:10:55;;;;;;;0.00;0.00;;;15.70;99.90;;;;;;4978254;28;20089;-82
2022/10/01 13:13:32;;;;;;;0.00;0.00;;;15.70;99.90;;;;;;4994595;28;20113;-82
2022/10/01 13:16:12;;;;;;;0.00;0.00;;;15.90;99.90;;;;;;4978084;28;20502;-83
2022/10/01 13:18:56;;;;;;;0.00;0.00;;;16.10;99.90;;;;;;4982735;28;20181;-82
2022/10/01 13:21:40;;;;;;;0.00;0.00;;;16.40;99.90;;;;;;5017221;28;20441;-83